Kenneth City, Florida
Current Conditions -  °F | °C
As of 10:53 AM on Wednesday 28 Jan 2015 (Local Time) from KSPG Reporting Station
Clear Clear  
Wind Chill: 56°   Ceiling: Unl
Heat Index: 56°   Visibility: 10mi
Dew Point: 37°   Wind: 12mph
Humidity: 49%   Direction: 30°NNE
Pressure: 30.23"   Gusts: NA
Location:  27.8183°N, 82.7292°W
Report Text: KSPG 281553Z 03010KT 10SM CLR 13/03 A3023 RMK AO2 SLP237 T01330028
Loading
Personal Weather Stations






























Interactive Weather Map New forecast layout! Learn more

10-Day Weather Forecast

Advertisements
Track Severe Weather on mobile